createdAt,value
2023-05-03T00:03:04.545Z,3.57
2023-05-03T00:13:06.825Z,3.93
2023-05-03T00:23:08.941Z,3.13
2023-05-03T00:33:11.046Z,3.20
2023-05-03T00:43:13.616Z,3.33
2023-05-03T00:53:16.052Z,3.40
2023-05-03T01:03:18.331Z,4.43
2023-05-03T01:13:44.125Z,3.93
2023-05-03T01:24:00.858Z,4.23
2023-05-03T01:34:24.314Z,4.23
2023-05-03T01:44:26.825Z,4.30
2023-05-03T01:54:28.875Z,3.60
2023-05-03T02:04:31.241Z,4.57
2023-05-03T02:14:33.338Z,3.90
2023-05-03T02:24:36.154Z,3.70
2023-05-03T02:34:38.771Z,3.57
2023-05-03T02:44:43.457Z,3.30
2023-05-03T02:54:47.090Z,3.17
2023-05-03T03:04:49.443Z,4.00
2023-05-03T03:14:51.566Z,3.00
2023-05-03T03:24:53.785Z,3.40
2023-05-03T03:34:56.490Z,3.43
2023-05-03T03:44:59.434Z,3.87
2023-05-03T03:55:01.595Z,3.77
2023-05-03T04:05:04.805Z,3.73
2023-05-03T04:15:08.925Z,4.03
2023-05-03T04:25:17.078Z,3.70
2023-05-03T04:35:23.932Z,4.17
2023-05-03T04:45:27.228Z,4.90
2023-05-03T04:55:30.631Z,5.17
2023-05-03T05:05:34.324Z,5.17
2023-05-03T05:15:36.646Z,5.00
2023-05-03T05:25:38.985Z,5.60
2023-05-03T05:35:41.222Z,5.83
2023-05-03T05:45:44.410Z,5.37
2023-05-03T05:55:46.493Z,5.67
2023-05-03T06:05:49.330Z,5.70
2023-05-03T06:15:51.532Z,4.93
2023-05-03T06:25:53.924Z,4.90
2023-05-03T06:35:59.046Z,5.47
2023-05-03T06:46:01.450Z,4.73
2023-05-03T06:56:03.967Z,4.33
2023-05-03T07:06:06.204Z,4.13
2023-05-03T07:16:08.288Z,4.20
2023-05-03T07:26:10.343Z,4.07
2023-05-03T07:36:12.349Z,4.00
2023-05-03T07:46:14.415Z,3.40
2023-05-03T07:56:16.418Z,3.90
2023-05-03T08:06:18.780Z,3.80
2023-05-03T08:16:21.388Z,2.97
2023-05-03T08:26:24.165Z,3.05
2023-05-03T08:36:26.284Z,2.60
2023-05-03T08:46:29.251Z,2.20
2023-05-03T08:56:40.354Z,1.30
2023-05-03T09:06:42.391Z,1.83
2023-05-03T09:16:46.625Z,1.60
2023-05-03T09:26:50.406Z,1.70
2023-05-03T09:36:52.418Z,1.87
2023-05-03T09:47:07.103Z,1.93
2023-05-03T09:57:09.226Z,1.77
2023-05-03T10:07:13.471Z,1.57
2023-05-03T10:17:42.906Z,1.50
2023-05-03T10:27:48.477Z,1.58
2023-05-03T10:37:52.072Z,1.70
2023-05-03T10:48:12.595Z,1.90
2023-05-03T10:58:16.649Z,1.73
2023-05-03T11:08:25.845Z,1.83
2023-05-03T11:18:28.012Z,2.03
2023-05-03T11:28:30.039Z,2.10
2023-05-03T11:38:33.276Z,1.70
2023-05-03T11:48:35.492Z,1.40
2023-05-03T11:58:49.680Z,2.53
2023-05-03T12:08:52.215Z,1.48
2023-05-03T12:18:58.777Z,2.08
2023-05-03T12:29:04.998Z,2.63
2023-05-03T12:39:10.845Z,1.90
2023-05-03T12:49:15.220Z,1.73
2023-05-03T12:59:40.471Z,2.65
2023-05-03T13:20:03.167Z,1.80
2023-05-03T13:30:06.024Z,2.60
2023-05-03T13:40:09.991Z,2.25
2023-05-03T13:50:12.126Z,2.95
2023-05-03T14:00:14.829Z,2.40
2023-05-03T14:10:16.998Z,2.67
2023-05-03T14:20:19.174Z,2.63
2023-05-03T14:30:21.947Z,2.88
2023-05-03T14:40:24.072Z,3.08
2023-05-03T14:50:26.224Z,2.50
2023-05-03T15:00:29.487Z,2.38
2023-05-03T15:10:31.766Z,2.30
2023-05-03T15:20:33.995Z,2.92
2023-05-03T15:30:36.125Z,2.45
2023-05-03T15:40:38.358Z,2.88
2023-05-03T15:50:40.513Z,3.40
2023-05-03T16:00:42.841Z,3.17
2023-05-03T16:10:46.328Z,2.60
2023-05-03T16:20:49.490Z,2.33
2023-05-03T16:30:51.749Z,2.58
2023-05-03T16:40:53.809Z,3.03
2023-05-03T16:50:56.241Z,3.20
2023-05-03T17:00:58.785Z,2.70
2023-05-03T17:11:08.746Z,2.78
2023-05-03T17:21:11.214Z,2.30
2023-05-03T17:31:13.622Z,1.88
2023-05-03T17:41:15.732Z,2.63
2023-05-03T17:51:17.866Z,2.55
2023-05-03T18:01:19.889Z,2.50
2023-05-03T18:11:22.894Z,1.80
2023-05-03T18:21:24.984Z,2.13
2023-05-03T18:31:27.227Z,2.70
2023-05-03T18:41:29.511Z,2.45
2023-05-03T18:51:32.389Z,2.30
2023-05-03T19:01:34.568Z,2.30
2023-05-03T19:11:36.800Z,2.90
2023-05-03T19:21:42.084Z,2.58
2023-05-03T19:31:44.214Z,2.53
2023-05-03T19:41:47.437Z,3.47
2023-05-03T19:51:51.810Z,3.88
2023-05-03T20:01:53.880Z,3.90
2023-05-03T20:11:59.948Z,4.55
2023-05-03T20:22:02.067Z,4.18
2023-05-03T20:32:04.121Z,4.40
2023-05-03T20:42:06.414Z,4.25
2023-05-03T20:52:08.427Z,4.82
2023-05-03T21:02:10.686Z,4.57
2023-05-03T21:12:12.762Z,5.17
2023-05-03T21:22:15.035Z,4.80
2023-05-03T21:32:17.054Z,4.83
2023-05-03T21:42:19.051Z,4.50
2023-05-03T21:52:21.223Z,3.90
2023-05-03T22:02:23.694Z,3.85
2023-05-03T22:12:26.200Z,3.95
2023-05-03T22:22:28.238Z,3.33
2023-05-03T22:32:30.296Z,3.67
2023-05-03T22:42:32.317Z,3.40
2023-05-03T22:52:34.351Z,3.87
2023-05-03T23:02:36.515Z,4.00
2023-05-03T23:12:39.246Z,3.57
2023-05-03T23:22:42.201Z,4.37
2023-05-03T23:32:45.719Z,3.83
2023-05-03T23:42:48.999Z,3.90
2023-05-03T23:52:51.067Z,3.97
